Jefferson, Louisiana
Current Conditions -  °F | °C
As of 3:53 AM on Sunday 21 Dec 2014 (Local Time) from KMSY Reporting Station
Overcast Overcast  
Wind Chill: 53°   Ceiling: 1000
Heat Index: 53°   Visibility: 10mi
Dew Point: 47°   Wind: 7mph
Humidity: 80%   Direction: 70°ENE
Pressure: 30.12"   Gusts: NA
Location:  29.96°N, 90.17°W
Report Text: KMSY 210953Z 07006KT 10SM OVC010 12/08 A3012 RMK AO2 SLP201 T01170083
Loading
Personal Weather Stations






























Interactive Weather Map New forecast layout! Learn more

10-Day Weather Forecast

Advertisements
Track Severe Weather on mobile